createdAt,value
2018-04-27T00:00:28.672Z,955
2018-04-27T00:01:28.659Z,955.04
2018-04-27T00:02:28.645Z,955.02
2018-04-27T00:03:28.632Z,954.99
2018-04-27T00:04:28.619Z,955.01
2018-04-27T00:05:28.611Z,955.04
2018-04-27T00:06:28.593Z,955.02
2018-04-27T00:07:28.579Z,955.04
2018-04-27T00:08:28.565Z,955.01
2018-04-27T00:09:28.554Z,955.03
2018-04-27T00:10:28.540Z,955.01
2018-04-27T00:11:28.525Z,955.05
2018-04-27T00:12:28.516Z,955.03
2018-04-27T00:13:28.498Z,955.07
2018-04-27T00:14:28.485Z,955.05
2018-04-27T00:15:28.487Z,955.03
2018-04-27T00:16:28.457Z,955.01
2018-04-27T00:17:28.443Z,955.06
2018-04-27T00:18:28.430Z,955.03
2018-04-27T00:19:28.416Z,955.06
2018-04-27T00:20:28.402Z,955.05
2018-04-27T00:21:28.388Z,955.05
2018-04-27T00:22:28.388Z,955.06
2018-04-27T00:23:28.361Z,955.1
2018-04-27T00:24:28.349Z,955.06
2018-04-27T00:25:28.333Z,955.06
2018-04-27T00:26:28.318Z,955.04
2018-04-27T00:27:28.304Z,955.07
2018-04-27T00:28:28.289Z,955.11
2018-04-27T00:29:28.276Z,955.09
2018-04-27T00:30:28.264Z,955.1
2018-04-27T00:31:28.248Z,955.11
2018-04-27T00:32:28.453Z,955.08
2018-04-27T00:33:28.218Z,955.07
2018-04-27T00:34:28.286Z,955.09
2018-04-27T00:35:28.191Z,955.12
2018-04-27T00:36:28.176Z,955.1
2018-04-27T00:37:28.163Z,955.08
2018-04-27T00:38:28.149Z,955.06
2018-04-27T00:39:28.133Z,955.11
2018-04-27T00:40:28.119Z,955.05
2018-04-27T00:41:28.105Z,955.02
2018-04-27T00:42:28.092Z,955.04
2018-04-27T00:43:28.077Z,955.01
2018-04-27T00:44:28.062Z,954.99
2018-04-27T00:45:28.048Z,954.91
2018-04-27T00:46:28.035Z,954.95
2018-04-27T00:47:28.023Z,954.95
2018-04-27T00:48:28.005Z,954.94
2018-04-27T00:49:27.990Z,954.86
2018-04-27T00:50:27.976Z,954.91
2018-04-27T00:51:27.960Z,954.88
2018-04-27T00:52:27.946Z,954.81
2018-04-27T00:53:27.932Z,954.89
2018-04-27T00:54:27.916Z,954.86
2018-04-27T00:55:27.902Z,954.82
2018-04-27T00:56:27.889Z,954.86
2018-04-27T00:57:27.874Z,954.85
2018-04-27T00:58:27.857Z,954.84
2018-04-27T00:59:28.066Z,954.83
2018-04-27T01:00:27.828Z,954.83
2018-04-27T01:01:27.815Z,954.81
2018-04-27T01:02:27.799Z,954.75
2018-04-27T01:03:27.785Z,954.74
2018-04-27T01:04:27.772Z,954.74
2018-04-27T01:05:27.756Z,954.69
2018-04-27T01:06:27.741Z,954.69
2018-04-27T01:07:27.728Z,954.68
2018-04-27T01:08:27.714Z,954.69
2018-04-27T01:09:27.699Z,954.71
2018-04-27T01:10:27.683Z,954.71
2018-04-27T01:11:27.668Z,954.73
2018-04-27T01:12:27.653Z,954.77
2018-04-27T01:13:27.640Z,954.79
2018-04-27T01:14:27.623Z,954.79
2018-04-27T01:15:27.610Z,954.77
2018-04-27T01:16:27.605Z,954.79
2018-04-27T01:17:27.581Z,954.78
2018-04-27T01:18:27.565Z,954.76
2018-04-27T01:19:27.550Z,954.74
2018-04-27T01:20:27.533Z,954.76
2018-04-27T01:21:27.520Z,954.84
2018-04-27T01:22:27.505Z,954.82
2018-04-27T01:23:27.494Z,954.81
2018-04-27T01:24:27.481Z,954.83
2018-04-27T01:25:27.461Z,954.83
2018-04-27T01:26:27.445Z,954.81
2018-04-27T01:27:27.430Z,954.82
2018-04-27T01:28:27.414Z,954.83
2018-04-27T01:29:27.400Z,954.79
2018-04-27T01:30:27.385Z,954.85
2018-04-27T01:31:27.369Z,954.81
2018-04-27T01:32:27.354Z,954.82
2018-04-27T01:33:27.339Z,954.83
2018-04-27T01:34:27.324Z,954.84
2018-04-27T01:35:27.310Z,954.86
2018-04-27T01:36:27.293Z,954.87
2018-04-27T01:37:27.279Z,954.83
2018-04-27T01:38:27.263Z,954.86
2018-04-27T01:39:27.270Z,954.89
2018-04-27T01:40:27.233Z,954.91
2018-04-27T01:41:27.219Z,954.87
2018-04-27T01:42:27.204Z,954.87
2018-04-27T01:43:27.189Z,954.88
2018-04-27T01:44:27.174Z,954.84
2018-04-27T01:45:27.158Z,954.83
2018-04-27T01:46:27.143Z,954.83
2018-04-27T01:47:27.129Z,954.78
2018-04-27T01:48:27.112Z,954.76
2018-04-27T01:49:27.097Z,954.75
2018-04-27T01:50:27.083Z,954.77
2018-04-27T01:51:27.067Z,954.77
2018-04-27T01:52:27.052Z,954.77
2018-04-27T01:53:27.036Z,954.81
2018-04-27T01:54:27.028Z,954.77
2018-04-27T01:55:27.010Z,954.79
2018-04-27T01:56:26.991Z,954.77
2018-04-27T01:57:26.976Z,954.8
2018-04-27T01:58:26.961Z,954.76
2018-04-27T01:59:26.945Z,954.73
2018-04-27T02:00:26.930Z,954.76
2018-04-27T02:01:26.912Z,954.8
2018-04-27T02:02:26.899Z,954.77
2018-04-27T02:03:26.883Z,954.72
2018-04-27T02:04:26.866Z,954.76
2018-04-27T02:05:26.852Z,954.76
2018-04-27T02:06:26.855Z,954.76
2018-04-27T02:07:26.821Z,954.72
2018-04-27T02:08:26.804Z,954.68
2018-04-27T02:09:26.790Z,954.67
2018-04-27T02:10:26.774Z,954.66
2018-04-27T02:11:26.759Z,954.69
2018-04-27T02:12:26.744Z,954.71
2018-04-27T02:13:26.728Z,954.71
2018-04-27T02:14:26.712Z,954.67
2018-04-27T02:15:26.699Z,954.68
2018-04-27T02:16:26.681Z,954.7
2018-04-27T02:17:26.693Z,954.75
2018-04-27T02:18:26.651Z,954.74
2018-04-27T02:19:26.654Z,954.73
2018-04-27T02:20:26.621Z,954.69
2018-04-27T02:21:26.605Z,954.67
2018-04-27T02:22:26.589Z,954.67
2018-04-27T02:23:26.582Z,954.72
2018-04-27T02:24:26.558Z,954.69
2018-04-27T02:25:26.543Z,954.67
2018-04-27T02:26:26.529Z,954.67
2018-04-27T02:27:26.512Z,954.7
2018-04-27T02:28:26.497Z,954.7
2018-04-27T02:29:26.487Z,954.72
2018-04-27T02:30:26.466Z,954.71
2018-04-27T02:31:26.449Z,954.7
2018-04-27T02:32:26.438Z,954.71
2018-04-27T02:33:26.420Z,954.71
2018-04-27T02:34:26.404Z,954.71
2018-04-27T02:35:26.405Z,954.69
2018-04-27T02:36:26.376Z,954.67
2018-04-27T02:37:26.357Z,954.68
2018-04-27T02:38:26.347Z,954.7
2018-04-27T02:39:26.328Z,954.71
2018-04-27T02:40:26.310Z,954.69
2018-04-27T02:41:26.294Z,954.71
2018-04-27T02:42:26.278Z,954.68
2018-04-27T02:43:26.264Z,954.65
2018-04-27T02:44:26.249Z,954.67
2018-04-27T02:45:26.232Z,954.67
2018-04-27T02:46:26.216Z,954.63
2018-04-27T02:47:26.208Z,954.63
2018-04-27T02:48:26.184Z,954.63
2018-04-27T02:49:26.173Z,954.66
2018-04-27T02:50:26.155Z,954.62
2018-04-27T02:51:26.139Z,954.64
2018-04-27T02:52:26.124Z,954.62
2018-04-27T02:53:26.109Z,954.64
2018-04-27T02:54:26.092Z,954.65
2018-04-27T02:55:26.093Z,954.67
2018-04-27T02:56:26.062Z,954.64
2018-04-27T02:57:26.049Z,954.62
2018-04-27T02:58:26.033Z,954.62
2018-04-27T02:59:26.019Z,954.64
2018-04-27T03:00:26.005Z,954.61
2018-04-27T03:01:26.007Z,954.61
2018-04-27T03:02:25.971Z,954.6
2018-04-27T03:03:25.955Z,954.62
2018-04-27T03:04:25.939Z,954.6
2018-04-27T03:05:25.924Z,954.58
2018-04-27T03:06:25.909Z,954.6
2018-04-27T03:07:25.894Z,954.54
2018-04-27T03:08:25.880Z,954.56
2018-04-27T03:09:25.863Z,954.51
2018-04-27T03:10:25.901Z,954.54
2018-04-27T03:11:25.830Z,954.5
2018-04-27T03:12:25.816Z,954.48
2018-04-27T03:13:25.801Z,954.51
2018-04-27T03:14:25.785Z,954.55
2018-04-27T03:15:25.770Z,954.51
2018-04-27T03:16:25.759Z,954.51
2018-04-27T03:17:25.757Z,954.48
2018-04-27T03:18:25.726Z,954.5
2018-04-27T03:19:25.710Z,954.43
2018-04-27T03:20:25.693Z,954.48
2018-04-27T03:21:25.678Z,954.44
2018-04-27T03:22:25.663Z,954.47
2018-04-27T03:23:25.655Z,954.45
2018-04-27T03:24:25.632Z,954.43
2018-04-27T03:25:25.617Z,954.4
2018-04-27T03:26:25.602Z,954.41
2018-04-27T03:27:25.586Z,954.39
2018-04-27T03:28:25.571Z,954.42
2018-04-27T03:29:25.555Z,954.41
2018-04-27T03:30:25.541Z,954.4
2018-04-27T03:31:25.526Z,954.4
2018-04-27T03:32:25.510Z,954.38
2018-04-27T03:33:25.494Z,954.36
2018-04-27T03:34:25.561Z,954.34
2018-04-27T03:35:25.463Z,954.33
2018-04-27T03:36:25.448Z,954.29
2018-04-27T03:37:25.433Z,954.33
2018-04-27T03:38:25.417Z,954.27
2018-04-27T03:39:25.401Z,954.29
2018-04-27T03:40:25.387Z,954.31
2018-04-27T03:41:25.371Z,954.28
2018-04-27T03:42:25.356Z,954.28
2018-04-27T03:43:25.341Z,954.29
2018-04-27T03:44:25.324Z,954.3
2018-04-27T03:45:25.355Z,954.31
2018-04-27T03:46:25.293Z,954.31
2018-04-27T03:47:25.282Z,954.35
2018-04-27T03:48:25.264Z,954.31
2018-04-27T03:49:25.246Z,954.39
2018-04-27T03:50:25.232Z,954.36
2018-04-27T03:51:25.217Z,954.36
2018-04-27T03:52:25.223Z,954.33
2018-04-27T03:53:25.186Z,954.37
2018-04-27T03:54:25.171Z,954.36
2018-04-27T03:55:25.156Z,954.33
2018-04-27T03:56:25.142Z,954.3
2018-04-27T03:57:25.125Z,954.29
2018-04-27T03:58:25.110Z,954.34
2018-04-27T03:59:25.093Z,954.31
2018-04-27T04:00:25.079Z,954.32
2018-04-27T04:01:25.064Z,954.28
2018-04-27T04:02:25.048Z,954.35
2018-04-27T04:03:25.039Z,954.32
2018-04-27T04:04:25.018Z,954.3
2018-04-27T04:05:25.004Z,954.26
2018-04-27T04:06:24.986Z,954.29
2018-04-27T04:07:24.974Z,954.26
2018-04-27T04:08:24.958Z,954.29
2018-04-27T04:09:24.940Z,954.31
2018-04-27T04:10:24.930Z,954.31
2018-04-27T04:11:24.911Z,954.3
2018-04-27T04:12:24.896Z,954.36
2018-04-27T04:13:24.882Z,954.32
2018-04-27T04:14:24.866Z,954.32
2018-04-27T04:15:24.864Z,954.34
2018-04-27T04:16:24.835Z,954.35
2018-04-27T04:17:24.820Z,954.36
2018-04-27T04:18:24.806Z,954.37
2018-04-27T04:19:24.790Z,954.34
2018-04-27T04:20:24.775Z,954.36
2018-04-27T04:21:24.760Z,954.34
2018-04-27T04:22:24.745Z,954.37
2018-04-27T04:23:24.729Z,954.34
2018-04-27T04:24:24.714Z,954.37
2018-04-27T04:25:24.699Z,954.29
2018-04-27T04:26:24.685Z,954.28
2018-04-27T04:27:24.687Z,954.28
2018-04-27T04:28:24.653Z,954.28
2018-04-27T04:29:24.642Z,954.29
2018-04-27T04:30:24.622Z,954.25
2018-04-27T04:31:24.607Z,954.28
2018-04-27T04:32:24.630Z,954.32
2018-04-27T04:33:24.580Z,954.24
2018-04-27T04:34:24.563Z,954.3
2018-04-27T04:35:24.549Z,954.28
2018-04-27T04:36:24.535Z,954.27
2018-04-27T04:37:24.519Z,954.28
2018-04-27T04:38:24.605Z,954.31
2018-04-27T04:39:24.492Z,954.29
2018-04-27T04:40:24.476Z,954.29
2018-04-27T04:41:24.467Z,954.29
2018-04-27T04:42:24.445Z,954.28
2018-04-27T04:43:24.431Z,954.32
2018-04-27T04:44:24.416Z,954.29
2018-04-27T04:45:24.418Z,954.3
2018-04-27T04:46:24.389Z,954.31
2018-04-27T04:47:24.379Z,954.3
2018-04-27T04:48:24.357Z,954.3
2018-04-27T04:49:24.346Z,954.32
2018-04-27T04:50:24.328Z,954.3
2018-04-27T04:51:24.314Z,954.33
2018-04-27T04:52:24.389Z,954.3
2018-04-27T04:53:24.286Z,954.36
2018-04-27T04:54:24.271Z,954.34
2018-04-27T04:55:24.277Z,954.35
2018-04-27T04:56:24.243Z,954.31
2018-04-27T04:57:24.229Z,954.35
2018-04-27T04:58:24.213Z,954.34
2018-04-27T04:59:24.199Z,954.33
2018-04-27T05:00:24.186Z,954.32
2018-04-27T05:01:24.391Z,954.3
2018-04-27T05:02:24.156Z,954.33
2018-04-27T05:03:24.142Z,954.37
2018-04-27T05:04:24.128Z,954.38
2018-04-27T05:05:24.114Z,954.42
2018-04-27T05:06:24.121Z,954.34
2018-04-27T05:07:24.103Z,954.37
2018-04-27T05:08:24.072Z,954.38
2018-04-27T05:09:24.057Z,954.39
2018-04-27T05:10:24.044Z,954.38
2018-04-27T05:11:24.047Z,954.36
2018-04-27T05:12:24.016Z,954.35
2018-04-27T05:13:24.001Z,954.39
2018-04-27T05:14:23.989Z,954.35
2018-04-27T05:15:23.974Z,954.35
2018-04-27T05:16:23.960Z,954.34
2018-04-27T05:17:23.945Z,954.31
2018-04-27T05:18:23.951Z,954.31
2018-04-27T05:19:23.918Z,954.33
2018-04-27T05:20:23.905Z,954.32
2018-04-27T05:21:23.890Z,954.28
2018-04-27T05:22:23.876Z,954.32
2018-04-27T05:23:23.862Z,954.29
2018-04-27T05:24:23.848Z,954.32
2018-04-27T05:25:23.874Z,954.31
2018-04-27T05:26:23.820Z,954.32
2018-04-27T05:27:23.807Z,954.35
2018-04-27T05:28:23.792Z,954.27
2018-04-27T05:29:23.980Z,954.29
2018-04-27T05:30:23.766Z,954.31
2018-04-27T05:31:23.754Z,954.24
2018-04-27T05:32:23.737Z,954.23
2018-04-27T05:33:23.724Z,954.21
2018-04-27T05:34:23.726Z,954.24
2018-04-27T05:35:23.697Z,954.2
2018-04-27T05:36:23.685Z,954.21
2018-04-27T05:37:23.676Z,954.19
2018-04-27T05:38:23.659Z,954.17
2018-04-27T05:39:23.643Z,954.17
2018-04-27T05:40:23.631Z,954.22
2018-04-27T05:41:23.618Z,954.15
2018-04-27T05:42:23.604Z,954.15
2018-04-27T05:43:23.590Z,954.12
2018-04-27T05:44:23.578Z,954.15
2018-04-27T05:45:23.564Z,954.09
2018-04-27T05:46:23.550Z,954.1
2018-04-27T05:47:23.544Z,954.12
2018-04-27T05:48:23.549Z,954.07
2018-04-27T05:49:23.515Z,954.09
2018-04-27T05:50:23.500Z,954.08
2018-04-27T05:51:23.486Z,954.04
2018-04-27T05:52:23.473Z,954.04
2018-04-27T05:53:23.464Z,954.07
2018-04-27T05:54:23.450Z,954.06
2018-04-27T05:55:23.441Z,954.06
2018-04-27T05:56:23.424Z,954.08
2018-04-27T05:57:23.410Z,954.07
2018-04-27T05:58:23.397Z,954.1
2018-04-27T05:59:23.387Z,954.09
2018-04-27T06:00:23.373Z,954.06
2018-04-27T06:01:23.361Z,954.04
2018-04-27T06:02:23.350Z,954.03
2018-04-27T06:03:23.337Z,954.05
2018-04-27T06:04:23.324Z,953.99
2018-04-27T06:05:23.311Z,954.02
2018-04-27T06:06:23.300Z,954.03
2018-04-27T06:07:23.288Z,954.01
2018-04-27T06:08:23.275Z,954.05
2018-04-27T06:09:23.265Z,954.03
2018-04-27T06:10:23.253Z,953.98
2018-04-27T06:11:23.243Z,954.03
2018-04-27T06:12:23.228Z,953.96
2018-04-27T06:13:23.218Z,953.96
2018-04-27T06:14:23.205Z,953.97
2018-04-27T06:15:23.194Z,953.94
2018-04-27T06:16:23.181Z,953.98
2018-04-27T06:17:23.171Z,953.96
2018-04-27T06:18:23.175Z,953.99
2018-04-27T06:19:23.149Z,954.01
2018-04-27T06:20:23.138Z,953.97
2018-04-27T06:21:23.126Z,953.95
2018-04-27T06:22:23.117Z,953.92
2018-04-27T06:23:23.106Z,953.92
2018-04-27T06:24:23.094Z,953.98
2018-04-27T06:25:23.083Z,953.99
2018-04-27T06:26:23.075Z,953.98
2018-04-27T06:27:23.061Z,954
2018-04-27T06:28:23.051Z,954.01
2018-04-27T06:29:23.046Z,953.93
2018-04-27T06:30:23.029Z,953.93
2018-04-27T06:31:23.026Z,953.95
2018-04-27T06:32:23.007Z,953.92
2018-04-27T06:33:23.014Z,953.89
2018-04-27T06:34:22.988Z,953.89
2018-04-27T06:35:22.976Z,953.83
2018-04-27T06:36:22.967Z,953.84
2018-04-27T06:37:22.961Z,953.84
2018-04-27T06:38:22.948Z,953.83
2018-04-27T06:39:23.045Z,953.81
2018-04-27T06:40:22.932Z,953.86
2018-04-27T06:41:22.920Z,953.82
2018-04-27T06:42:22.912Z,953.86
2018-04-27T06:43:22.901Z,953.88
2018-04-27T06:44:22.909Z,953.89
2018-04-27T06:45:22.880Z,953.89
2018-04-27T06:46:22.872Z,953.9
2018-04-27T06:47:22.863Z,953.89
2018-04-27T06:48:22.855Z,953.88
2018-04-27T06:49:22.846Z,953.88
2018-04-27T06:50:22.837Z,953.84
2018-04-27T06:51:22.830Z,953.85
2018-04-27T06:52:22.820Z,953.88
2018-04-27T06:53:22.812Z,953.84
2018-04-27T06:54:22.802Z,953.88
2018-04-27T06:55:22.796Z,953.87
2018-04-27T06:56:22.787Z,953.9
2018-04-27T06:57:22.779Z,953.9
2018-04-27T06:58:22.791Z,953.91
2018-04-27T06:59:22.787Z,953.9
2018-04-27T07:00:22.756Z,953.9
2018-04-27T07:01:22.750Z,953.89
2018-04-27T07:02:22.750Z,953.9
2018-04-27T07:03:22.733Z,953.89
2018-04-27T07:04:22.728Z,953.95
2018-04-27T07:05:22.748Z,953.96
2018-04-27T07:06:22.716Z,953.93
2018-04-27T07:07:22.704Z,953.9
2018-04-27T07:08:22.697Z,953.91
2018-04-27T07:09:22.690Z,953.92
2018-04-27T07:10:22.681Z,953.87
2018-04-27T07:11:22.678Z,953.86
2018-04-27T07:12:22.668Z,953.83
2018-04-27T07:13:22.661Z,953.81
2018-04-27T07:14:22.653Z,953.86
2018-04-27T07:15:22.647Z,953.82
2018-04-27T07:16:22.639Z,953.83
2018-04-27T07:17:22.633Z,953.8
2018-04-27T07:18:22.627Z,953.81
2018-04-27T07:19:22.618Z,953.8
2018-04-27T07:20:22.612Z,953.83
2018-04-27T07:21:22.603Z,953.81
2018-04-27T07:22:22.597Z,953.81
2018-04-27T07:23:22.590Z,953.78
2018-04-27T07:24:22.585Z,953.77
2018-04-27T07:25:22.576Z,953.77
2018-04-27T07:26:22.569Z,953.74
2018-04-27T07:27:22.563Z,953.75
2018-04-27T07:28:22.557Z,953.76
2018-04-27T07:29:22.547Z,953.76
2018-04-27T07:30:22.543Z,953.8
2018-04-27T07:31:22.534Z,953.76
2018-04-27T07:32:22.534Z,953.79
2018-04-27T07:33:22.521Z,953.82
2018-04-27T07:34:22.513Z,953.8
2018-04-27T07:35:22.508Z,953.82
2018-04-27T07:36:22.500Z,953.82
2018-04-27T07:37:22.493Z,953.8
2018-04-27T07:38:22.485Z,953.78
2018-04-27T07:39:22.480Z,953.77
2018-04-27T07:40:22.473Z,953.76
2018-04-27T07:41:22.465Z,953.76
2018-04-27T07:42:22.459Z,953.75
2018-04-27T07:43:22.452Z,953.71
2018-04-27T07:44:22.449Z,953.7
2018-04-27T07:45:22.463Z,953.71
2018-04-27T07:46:22.436Z,953.7
2018-04-27T07:47:22.427Z,953.67
2018-04-27T07:48:22.437Z,953.67
2018-04-27T07:49:22.415Z,953.6
2018-04-27T07:50:22.408Z,953.62
2018-04-27T07:51:22.402Z,953.62
2018-04-27T07:52:22.396Z,953.63
2018-04-27T07:53:22.390Z,953.58
2018-04-27T07:54:22.609Z,953.61
2018-04-27T07:55:22.380Z,953.61
2018-04-27T07:56:22.385Z,953.65
2018-04-27T07:57:22.367Z,953.62
2018-04-27T07:58:22.363Z,953.61
2018-04-27T07:59:22.358Z,953.61
2018-04-27T08:00:22.396Z,953.62
2018-04-27T08:01:22.346Z,953.63
2018-04-27T08:02:22.360Z,953.6
2018-04-27T08:03:22.336Z,953.6
2018-04-27T08:04:22.332Z,953.63
2018-04-27T08:05:22.326Z,953.66
2018-04-27T08:06:22.321Z,953.65
2018-04-27T08:07:22.316Z,953.63
2018-04-27T08:08:22.311Z,953.61
2018-04-27T08:09:22.306Z,953.66
2018-04-27T08:10:22.302Z,953.56
2018-04-27T08:11:22.378Z,953.62
2018-04-27T08:12:22.292Z,953.6
2018-04-27T08:13:22.285Z,953.56
2018-04-27T08:14:22.282Z,953.52
2018-04-27T08:15:22.276Z,953.55
2018-04-27T08:16:22.272Z,953.5
2018-04-27T08:17:22.284Z,953.55
2018-04-27T08:18:22.262Z,953.55
2018-04-27T08:19:22.258Z,953.57
2018-04-27T08:20:22.252Z,953.55
2018-04-27T08:21:22.248Z,953.51
2018-04-27T08:22:22.245Z,953.58
2018-04-27T08:23:22.237Z,953.48
2018-04-27T08:24:22.235Z,953.45
2018-04-27T08:25:22.230Z,953.48
2018-04-27T08:26:22.224Z,953.51
2018-04-27T08:27:22.220Z,953.52
2018-04-27T08:28:22.230Z,953.57
2018-04-27T08:29:22.213Z,953.56
2018-04-27T08:30:22.207Z,953.56
2018-04-27T08:31:22.200Z,953.57
2018-04-27T08:32:22.197Z,953.54
2018-04-27T08:33:22.193Z,953.54
2018-04-27T08:34:22.188Z,953.55
2018-04-27T08:35:22.184Z,953.57
2018-04-27T08:36:22.180Z,953.57
2018-04-27T08:37:22.174Z,953.52
2018-04-27T08:38:22.173Z,953.54
2018-04-27T08:39:22.167Z,953.53
2018-04-27T08:40:22.163Z,953.54
2018-04-27T08:41:22.159Z,953.56
2018-04-27T08:42:22.155Z,953.5
2018-04-27T08:43:22.148Z,953.5
2018-04-27T08:44:22.144Z,953.49
2018-04-27T08:45:22.141Z,953.48
2018-04-27T08:46:22.136Z,953.51
2018-04-27T08:47:22.131Z,953.45
2018-04-27T08:48:22.127Z,953.48
2018-04-27T08:49:22.123Z,953.49
2018-04-27T08:50:22.228Z,953.49
2018-04-27T08:51:22.116Z,953.43
2018-04-27T08:52:22.113Z,953.48
2018-04-27T08:53:22.105Z,953.44
2018-04-27T08:54:22.101Z,953.43
2018-04-27T08:55:22.095Z,953.39
2018-04-27T08:56:22.107Z,953.39
2018-04-27T08:57:22.101Z,953.38
2018-04-27T08:58:22.080Z,953.29
2018-04-27T08:59:22.078Z,953.32
2018-04-27T09:00:22.071Z,953.32
2018-04-27T09:01:22.067Z,953.22
2018-04-27T09:02:22.062Z,953.23
2018-04-27T09:03:22.077Z,953.2
2018-04-27T09:04:22.053Z,953.18
2018-04-27T09:05:22.049Z,953.13
2018-04-27T09:06:22.139Z,953.16
2018-04-27T09:07:22.038Z,953.15
2018-04-27T09:08:22.458Z,953.12
2018-04-27T09:09:22.031Z,953.16
2018-04-27T09:10:22.029Z,953.18
2018-04-27T09:11:22.019Z,953.15
2018-04-27T09:12:22.019Z,953.15
2018-04-27T09:13:22.010Z,953.17
2018-04-27T09:14:22.006Z,953.17
2018-04-27T09:15:21.999Z,953.16
2018-04-27T09:16:22.049Z,953.17
2018-04-27T09:17:21.990Z,953.14
2018-04-27T09:18:21.984Z,953.12
2018-04-27T09:19:21.979Z,953.16
2018-04-27T09:20:21.975Z,953.11
2018-04-27T09:21:21.970Z,953.1
2018-04-27T09:22:21.964Z,953.03
2018-04-27T09:23:21.960Z,952.98
2018-04-27T09:24:21.955Z,952.99
2018-04-27T09:25:21.950Z,952.95
2018-04-27T09:26:21.963Z,952.92
2018-04-27T09:27:21.941Z,952.9
2018-04-27T09:28:21.935Z,952.92
2018-04-27T09:29:21.930Z,952.95
2018-04-27T09:30:21.925Z,952.95
2018-04-27T09:31:21.923Z,952.93
2018-04-27T09:32:22.019Z,952.91
2018-04-27T09:33:21.911Z,952.89
2018-04-27T09:34:21.905Z,952.82
2018-04-27T09:35:21.901Z,952.86
2018-04-27T09:36:21.897Z,952.8
2018-04-27T09:37:21.890Z,952.82
2018-04-27T09:38:22.108Z,952.87
2018-04-27T09:39:21.882Z,952.83
2018-04-27T09:40:21.876Z,952.84
2018-04-27T09:41:21.873Z,952.82
2018-04-27T09:42:21.867Z,952.83
2018-04-27T09:43:21.863Z,952.84
2018-04-27T09:44:21.862Z,952.79
2018-04-27T09:45:21.855Z,952.85
2018-04-27T09:46:21.850Z,952.79
2018-04-27T09:47:21.844Z,952.76
2018-04-27T09:48:21.845Z,952.74
2018-04-27T09:49:21.836Z,952.69
2018-04-27T09:50:21.831Z,952.74
2018-04-27T09:51:21.826Z,952.78
2018-04-27T09:52:21.821Z,952.68
2018-04-27T09:53:21.817Z,952.66
2018-04-27T09:54:21.813Z,952.61
2018-04-27T09:55:21.826Z,952.6
2018-04-27T09:56:21.802Z,952.56
2018-04-27T09:57:21.802Z,952.58
2018-04-27T09:58:21.793Z,952.58
2018-04-27T09:59:21.787Z,952.6
2018-04-27T10:00:21.785Z,952.56
2018-04-27T10:01:21.781Z,952.54
2018-04-27T10:02:21.776Z,952.49
2018-04-27T10:03:21.770Z,952.5
2018-04-27T10:04:21.766Z,952.46
2018-04-27T10:05:21.761Z,952.44
2018-04-27T10:06:21.755Z,952.41
2018-04-27T10:07:21.757Z,952.37
2018-04-27T10:08:21.751Z,952.43
2018-04-27T10:09:21.741Z,952.38
2018-04-27T10:10:21.737Z,952.36
2018-04-27T10:11:21.734Z,952.39
2018-04-27T10:12:21.729Z,952.36
2018-04-27T10:13:21.725Z,952.31
2018-04-27T10:14:21.721Z,952.28
2018-04-27T10:15:21.719Z,952.26
2018-04-27T10:16:21.715Z,952.22
2018-04-27T10:17:21.713Z,952.27
2018-04-27T10:18:21.705Z,952.21
2018-04-27T10:19:21.701Z,952.19
2018-04-27T10:20:21.739Z,952.21
2018-04-27T10:21:21.693Z,952.25
2018-04-27T10:22:21.688Z,952.21
2018-04-27T10:23:21.686Z,952.15
2018-04-27T10:24:21.681Z,952.16
2018-04-27T10:25:21.679Z,952.18
2018-04-27T10:26:21.680Z,952.16
2018-04-27T10:27:21.670Z,952.14
2018-04-27T10:28:21.664Z,952.1
2018-04-27T10:29:21.662Z,952.12
2018-04-27T10:30:21.658Z,952.12
2018-04-27T10:31:21.653Z,952.08
2018-04-27T10:32:21.651Z,952.05
2018-04-27T10:33:21.647Z,952.06
2018-04-27T10:34:21.657Z,951.94
2018-04-27T10:35:21.638Z,951.99
2018-04-27T10:36:21.633Z,951.98
2018-04-27T10:37:21.632Z,951.95
2018-04-27T10:38:21.628Z,951.9
2018-04-27T10:39:21.622Z,951.94
2018-04-27T10:40:21.623Z,951.89
2018-04-27T10:41:21.615Z,951.93
2018-04-27T10:42:21.611Z,951.86
2018-04-27T10:43:21.608Z,951.86
2018-04-27T10:44:21.602Z,951.84
2018-04-27T10:45:21.618Z,951.82
2018-04-27T10:46:21.596Z,951.81
2018-04-27T10:47:21.593Z,951.8
2018-04-27T10:48:21.589Z,951.78
2018-04-27T10:49:21.586Z,951.78
2018-04-27T10:50:21.642Z,951.74
2018-04-27T10:51:21.577Z,951.77
2018-04-27T10:52:21.574Z,951.7
2018-04-27T10:53:21.569Z,951.67
2018-04-27T10:54:21.565Z,951.73
2018-04-27T10:55:21.562Z,951.67
2018-04-27T10:56:21.565Z,951.66
2018-04-27T10:57:21.556Z,951.66
2018-04-27T10:58:21.550Z,951.65
2018-04-27T10:59:21.564Z,951.62
2018-04-27T11:00:21.551Z,951.66
2018-04-27T11:01:21.550Z,951.61
2018-04-27T11:02:21.537Z,951.58
2018-04-27T11:03:21.586Z,951.58
2018-04-27T11:04:21.551Z,951.58
2018-04-27T11:05:21.544Z,951.54
2018-04-27T11:06:21.522Z,951.48
2018-04-27T11:07:21.521Z,951.47
2018-04-27T11:08:21.519Z,951.42
2018-04-27T11:09:21.515Z,951.39
2018-04-27T11:10:21.727Z,951.37
2018-04-27T11:11:21.505Z,951.4
2018-04-27T11:12:21.502Z,951.35
2018-04-27T11:13:21.499Z,951.39
2018-04-27T11:14:21.496Z,951.32
2018-04-27T11:15:21.493Z,951.31
2018-04-27T11:16:21.504Z,951.32
2018-04-27T11:17:21.485Z,951.34
2018-04-27T11:18:21.482Z,951.32
2018-04-27T11:19:21.477Z,951.26
2018-04-27T11:20:21.473Z,951.17
2018-04-27T11:21:21.470Z,951.14
2018-04-27T11:22:21.467Z,951.19
2018-04-27T11:23:21.463Z,951.15
2018-04-27T11:24:21.459Z,951.16
2018-04-27T11:25:21.457Z,951.08
2018-04-27T11:26:21.451Z,951.06
2018-04-27T11:27:21.447Z,951.02
2018-04-27T11:28:21.445Z,951.01
2018-04-27T11:29:21.441Z,950.94
2018-04-27T11:30:21.437Z,950.96
2018-04-27T11:31:21.433Z,950.95
2018-04-27T11:32:21.430Z,950.92
2018-04-27T11:33:21.425Z,950.95
2018-04-27T11:34:21.421Z,950.92
2018-04-27T11:35:21.418Z,950.89
2018-04-27T11:36:21.414Z,950.87
2018-04-27T11:37:21.410Z,950.88
2018-04-27T11:38:21.407Z,950.9
2018-04-27T11:39:21.403Z,950.94
2018-04-27T11:40:21.400Z,950.95
2018-04-27T11:41:21.492Z,950.99
2018-04-27T11:42:21.389Z,950.95
2018-04-27T11:43:21.387Z,950.99
2018-04-27T11:44:21.383Z,950.98
2018-04-27T11:45:21.377Z,950.93
2018-04-27T11:46:21.374Z,950.95
2018-04-27T11:47:21.371Z,950.94
2018-04-27T11:48:21.366Z,950.9
2018-04-27T11:49:21.378Z,950.92
2018-04-27T11:50:21.359Z,950.85
2018-04-27T11:51:21.356Z,950.84
2018-04-27T11:52:21.349Z,950.82
2018-04-27T11:53:21.360Z,950.92
2018-04-27T11:54:21.343Z,950.92
2018-04-27T11:55:21.337Z,950.91
2018-04-27T11:56:21.334Z,950.85
2018-04-27T11:57:21.328Z,950.8
2018-04-27T11:58:21.324Z,950.82
2018-04-27T11:59:21.321Z,950.81
2018-04-27T12:00:21.316Z,950.78
2018-04-27T12:01:21.314Z,950.78
2018-04-27T12:02:21.310Z,950.79
2018-04-27T12:03:21.305Z,950.77
2018-04-27T12:04:21.304Z,950.72
2018-04-27T12:05:21.298Z,950.71
2018-04-27T12:06:21.292Z,950.73
2018-04-27T12:07:21.289Z,950.61
2018-04-27T12:08:21.284Z,950.6
2018-04-27T12:09:21.361Z,950.59
2018-04-27T12:10:21.282Z,950.6
2018-04-27T12:11:21.273Z,950.55
2018-04-27T12:12:21.284Z,950.57
2018-04-27T12:13:21.266Z,950.59
2018-04-27T12:14:21.259Z,950.66
2018-04-27T12:15:21.255Z,950.57
2018-04-27T12:16:21.252Z,950.62
2018-04-27T12:17:21.265Z,950.64
2018-04-27T12:18:21.243Z,950.62
2018-04-27T12:19:21.242Z,950.59
2018-04-27T12:20:21.236Z,950.53
2018-04-27T12:21:21.229Z,950.59
2018-04-27T12:22:21.269Z,950.51
2018-04-27T12:23:21.241Z,950.5
2018-04-27T12:24:21.226Z,950.52
2018-04-27T12:25:21.214Z,950.5
2018-04-27T12:26:21.209Z,950.49
2018-04-27T12:27:21.207Z,950.46
2018-04-27T12:28:21.201Z,950.45
2018-04-27T12:29:21.196Z,950.46
2018-04-27T12:30:21.192Z,950.37